sensor_id;sensor_type;location;lat;lon;timestamp;P1;durP1;ratioP1;P2;durP2;ratioP2
34184;SDS011;20454;48.100;11.776;2022-12-24T00:02:08;1.52;;;0.98;;
34184;SDS011;20454;48.100;11.776;2022-12-24T00:04:33;9.13;;;0.88;;
34184;SDS011;20454;48.100;11.776;2022-12-24T00:06:59;0.75;;;0.50;;
34184;SDS011;20454;48.100;11.776;2022-12-24T00:09:25;0.70;;;0.70;;
34184;SDS011;20454;48.100;11.776;2022-12-24T00:11:51;1.48;;;0.93;;
34184;SDS011;20454;48.100;11.776;2022-12-24T00:14:16;0.70;;;0.70;;
34184;SDS011;20454;48.100;11.776;2022-12-24T00:16:42;1.73;;;0.85;;
34184;SDS011;20454;48.100;11.776;2022-12-24T00:19:09;2.25;;;0.68;;
34184;SDS011;20454;48.100;11.776;2022-12-24T00:21:34;1.85;;;0.77;;
34184;SDS011;20454;48.100;11.776;2022-12-24T00:24:00;3.67;;;0.73;;
34184;SDS011;20454;48.100;11.776;2022-12-24T00:26:28;0.80;;;0.60;;
34184;SDS011;20454;48.100;11.776;2022-12-24T00:28:54;0.50;;;0.50;;
34184;SDS011;20454;48.100;11.776;2022-12-24T00:31:19;1.92;;;0.80;;
34184;SDS011;20454;48.100;11.776;2022-12-24T00:33:45;0.68;;;0.68;;
34184;SDS011;20454;48.100;11.776;2022-12-24T00:36:12;0.77;;;0.77;;
34184;SDS011;20454;48.100;11.776;2022-12-24T00:38:38;0.60;;;0.60;;
34184;SDS011;20454;48.100;11.776;2022-12-24T00:41:05;1.50;;;0.70;;
34184;SDS011;20454;48.100;11.776;2022-12-24T00:43:58;0.70;;;0.60;;
34184;SDS011;20454;48.100;11.776;2022-12-24T00:46:30;0.43;;;0.43;;
34184;SDS011;20454;48.100;11.776;2022-12-24T00:48:58;0.43;;;0.43;;
34184;SDS011;20454;48.100;11.776;2022-12-24T00:51:25;0.60;;;0.60;;
34184;SDS011;20454;48.100;11.776;2022-12-24T00:53:51;1.23;;;1.08;;
34184;SDS011;20454;48.100;11.776;2022-12-24T00:56:17;1.10;;;0.90;;
34184;SDS011;20454;48.100;11.776;2022-12-24T00:58:44;3.72;;;0.85;;
34184;SDS011;20454;48.100;11.776;2022-12-24T01:01:10;0.88;;;0.60;;
34184;SDS011;20454;48.100;11.776;2022-12-24T01:03:36;0.55;;;0.55;;
34184;SDS011;20454;48.100;11.776;2022-12-24T01:06:10;0.40;;;0.40;;
34184;SDS011;20454;48.100;11.776;2022-12-24T01:08:39;0.60;;;0.60;;
34184;SDS011;20454;48.100;11.776;2022-12-24T01:11:05;0.50;;;0.50;;
34184;SDS011;20454;48.100;11.776;2022-12-24T01:13:34;0.50;;;0.50;;
34184;SDS011;20454;48.100;11.776;2022-12-24T01:16:01;0.47;;;0.47;;
34184;SDS011;20454;48.100;11.776;2022-12-24T01:18:27;1.08;;;0.52;;
34184;SDS011;20454;48.100;11.776;2022-12-24T01:20:57;0.77;;;0.68;;
34184;SDS011;20454;48.100;11.776;2022-12-24T01:23:25;2.17;;;0.80;;
34184;SDS011;20454;48.100;11.776;2022-12-24T01:25:52;0.90;;;0.60;;
34184;SDS011;20454;48.100;11.776;2022-12-24T01:28:18;1.00;;;0.60;;
34184;SDS011;20454;48.100;11.776;2022-12-24T01:30:45;2.00;;;0.52;;
34184;SDS011;20454;48.100;11.776;2022-12-24T01:33:12;0.50;;;0.50;;
34184;SDS011;20454;48.100;11.776;2022-12-24T01:35:38;0.93;;;0.90;;
34184;SDS011;20454;48.100;11.776;2022-12-24T01:38:05;1.23;;;1.10;;
34184;SDS011;20454;48.100;11.776;2022-12-24T01:40:32;1.20;;;0.70;;
34184;SDS011;20454;48.100;11.776;2022-12-24T01:43:18;2.20;;;0.70;;
34184;SDS011;20454;48.100;11.776;2022-12-24T01:48:55;0.80;;;0.60;;
34184;SDS011;20454;48.100;11.776;2022-12-24T01:54:02;0.57;;;0.45;;
34184;SDS011;20454;48.100;11.776;2022-12-24T01:56:36;0.65;;;0.35;;
34184;SDS011;20454;48.100;11.776;2022-12-24T01:59:07;1.00;;;1.00;;
34184;SDS011;20454;48.100;11.776;2022-12-24T02:01:38;0.85;;;0.85;;
34184;SDS011;20454;48.100;11.776;2022-12-24T02:04:08;2.08;;;0.60;;
34184;SDS011;20454;48.100;11.776;2022-12-24T02:06:49;3.53;;;0.60;;
34184;SDS011;20454;48.100;11.776;2022-12-24T02:09:15;1.45;;;0.50;;
34184;SDS011;20454;48.100;11.776;2022-12-24T02:11:40;1.75;;;0.60;;
34184;SDS011;20454;48.100;11.776;2022-12-24T02:14:08;0.60;;;0.60;;
34184;SDS011;20454;48.100;11.776;2022-12-24T02:22:06;1.95;;;0.68;;
34184;SDS011;20454;48.100;11.776;2022-12-24T02:28:16;2.35;;;0.57;;
34184;SDS011;20454;48.100;11.776;2022-12-24T02:30:47;0.70;;;0.70;;
34184;SDS011;20454;48.100;11.776;2022-12-24T02:33:32;2.58;;;0.82;;
34184;SDS011;20454;48.100;11.776;2022-12-24T02:36:10;1.10;;;0.60;;
34184;SDS011;20454;48.100;11.776;2022-12-24T02:41:26;1.10;;;0.65;;
34184;SDS011;20454;48.100;11.776;2022-12-24T02:44:17;7.13;;;0.98;;
34184;SDS011;20454;48.100;11.776;2022-12-24T02:46:47;1.05;;;0.57;;
34184;SDS011;20454;48.100;11.776;2022-12-24T02:49:14;1.33;;;0.70;;
34184;SDS011;20454;48.100;11.776;2022-12-24T02:51:40;0.50;;;0.50;;
34184;SDS011;20454;48.100;11.776;2022-12-24T02:54:06;2.05;;;0.88;;
34184;SDS011;20454;48.100;11.776;2022-12-24T02:59:32;1.95;;;0.75;;
34184;SDS011;20454;48.100;11.776;2022-12-24T07:01:46;2.07;;;0.43;;
34184;SDS011;20454;48.100;11.776;2022-12-24T07:04:12;0.40;;;0.40;;
34184;SDS011;20454;48.100;11.776;2022-12-24T07:06:38;1.63;;;0.80;;
34184;SDS011;20454;48.100;11.776;2022-12-24T07:09:05;1.13;;;0.40;;
34184;SDS011;20454;48.100;11.776;2022-12-24T07:11:31;0.55;;;0.35;;
34184;SDS011;20454;48.100;11.776;2022-12-24T07:13:57;0.98;;;0.75;;
34184;SDS011;20454;48.100;11.776;2022-12-24T07:16:23;0.50;;;0.30;;
34184;SDS011;20454;48.100;11.776;2022-12-24T07:18:48;0.43;;;0.43;;
34184;SDS011;20454;48.100;11.776;2022-12-24T07:21:14;0.55;;;0.55;;
34184;SDS011;20454;48.100;11.776;2022-12-24T07:23:40;1.88;;;1.35;;
34184;SDS011;20454;48.100;11.776;2022-12-24T07:26:06;0.70;;;0.70;;
34184;SDS011;20454;48.100;11.776;2022-12-24T07:28:32;0.50;;;0.50;;
34184;SDS011;20454;48.100;11.776;2022-12-24T07:30:58;2.58;;;0.90;;
34184;SDS011;20454;48.100;11.776;2022-12-24T07:33:24;2.13;;;0.80;;
34184;SDS011;20454;48.100;11.776;2022-12-24T07:36:03;2.13;;;1.10;;
34184;SDS011;20454;48.100;11.776;2022-12-24T07:38:31;1.20;;;1.10;;
34184;SDS011;20454;48.100;11.776;2022-12-24T07:40:57;0.80;;;0.80;;
34184;SDS011;20454;48.100;11.776;2022-12-24T07:43:24;0.85;;;0.85;;
34184;SDS011;20454;48.100;11.776;2022-12-24T07:45:53;1.15;;;1.15;;
34184;SDS011;20454;48.100;11.776;2022-12-24T07:48:23;2.75;;;2.45;;
34184;SDS011;20454;48.100;11.776;2022-12-24T07:50:51;2.38;;;1.00;;
34184;SDS011;20454;48.100;11.776;2022-12-24T07:53:17;1.17;;;0.70;;
34184;SDS011;20454;48.100;11.776;2022-12-24T07:55:43;1.92;;;1.83;;
34184;SDS011;20454;48.100;11.776;2022-12-24T07:58:09;3.38;;;1.33;;
34184;SDS011;20454;48.100;11.776;2022-12-24T08:00:35;2.33;;;1.20;;
34184;SDS011;20454;48.100;11.776;2022-12-24T08:03:01;4.22;;;2.47;;
34184;SDS011;20454;48.100;11.776;2022-12-24T08:05:27;1.85;;;1.75;;
34184;SDS011;20454;48.100;11.776;2022-12-24T08:07:57;1.98;;;1.88;;
34184;SDS011;20454;48.100;11.776;2022-12-24T08:10:23;1.35;;;0.90;;
34184;SDS011;20454;48.100;11.776;2022-12-24T08:12:48;0.98;;;0.75;;
34184;SDS011;20454;48.100;11.776;2022-12-24T08:15:14;0.57;;;0.57;;
34184;SDS011;20454;48.100;11.776;2022-12-24T08:17:40;0.47;;;0.47;;
34184;SDS011;20454;48.100;11.776;2022-12-24T08:20:06;0.65;;;0.65;;
34184;SDS011;20454;48.100;11.776;2022-12-24T08:22:32;1.08;;;0.50;;
34184;SDS011;20454;48.100;11.776;2022-12-24T08:24:58;1.77;;;0.60;;
34184;SDS011;20454;48.100;11.776;2022-12-24T14:01:04;4.40;;;4.10;;
34184;SDS011;20454;48.100;11.776;2022-12-24T14:03:39;4.18;;;3.88;;
34184;SDS011;20454;48.100;11.776;2022-12-24T14:06:22;2.13;;;1.08;;
34184;SDS011;20454;48.100;11.776;2022-12-24T14:09:10;3.72;;;1.58;;
34184;SDS011;20454;48.100;11.776;2022-12-24T14:14:28;2.25;;;0.75;;
34184;SDS011;20454;48.100;11.776;2022-12-24T14:17:01;2.47;;;0.90;;
34184;SDS011;20454;48.100;11.776;2022-12-24T14:19:44;2.50;;;0.60;;
34184;SDS011;20454;48.100;11.776;2022-12-24T14:25:00;1.13;;;0.80;;
34184;SDS011;20454;48.100;11.776;2022-12-24T14:27:48;4.25;;;1.10;;
34184;SDS011;20454;48.100;11.776;2022-12-24T14:30:41;3.22;;;0.95;;
34184;SDS011;20454;48.100;11.776;2022-12-24T14:33:25;1.27;;;1.00;;
34184;SDS011;20454;48.100;11.776;2022-12-24T14:35:56;3.90;;;2.60;;
34184;SDS011;20454;48.100;11.776;2022-12-24T14:38:23;1.60;;;1.40;;
34184;SDS011;20454;48.100;11.776;2022-12-24T14:46:33;3.10;;;1.20;;
34184;SDS011;20454;48.100;11.776;2022-12-24T14:52:26;4.97;;;1.23;;
34184;SDS011;20454;48.100;11.776;2022-12-24T14:55:45;2.90;;;1.15;;
34184;SDS011;20454;48.100;11.776;2022-12-24T14:58:26;1.30;;;1.08;;
34184;SDS011;20454;48.100;11.776;2022-12-24T15:01:01;9.77;;;0.90;;
34184;SDS011;20454;48.100;11.776;2022-12-24T15:03:43;2.42;;;1.10;;
34184;SDS011;20454;48.100;11.776;2022-12-24T15:06:10;1.75;;;1.20;;
34184;SDS011;20454;48.100;11.776;2022-12-24T15:08:46;2.80;;;1.52;;
34184;SDS011;20454;48.100;11.776;2022-12-24T15:11:15;4.88;;;2.28;;
34184;SDS011;20454;48.100;11.776;2022-12-24T15:13:48;5.20;;;2.10;;
34184;SDS011;20454;48.100;11.776;2022-12-24T15:16:27;6.10;;;5.25;;
34184;SDS011;20454;48.100;11.776;2022-12-24T15:19:23;14.32;;;7.50;;
34184;SDS011;20454;48.100;11.776;2022-12-24T15:21:58;4.63;;;4.00;;
34184;SDS011;20454;48.100;11.776;2022-12-24T15:24:29;4.05;;;3.25;;
34184;SDS011;20454;48.100;11.776;2022-12-24T15:29:28;3.22;;;2.13;;
34184;SDS011;20454;48.100;11.776;2022-12-24T15:32:00;4.00;;;3.00;;
34184;SDS011;20454;48.100;11.776;2022-12-24T15:34:37;6.25;;;2.20;;
34184;SDS011;20454;48.100;11.776;2022-12-24T15:37:12;3.70;;;3.00;;
34184;SDS011;20454;48.100;11.776;2022-12-24T15:39:53;3.72;;;2.45;;
34184;SDS011;20454;48.100;11.776;2022-12-24T15:42:33;6.00;;;2.88;;
34184;SDS011;20454;48.100;11.776;2022-12-24T15:45:10;3.55;;;3.10;;
34184;SDS011;20454;48.100;11.776;2022-12-24T15:47:47;4.40;;;3.20;;
34184;SDS011;20454;48.100;11.776;2022-12-24T15:53:03;4.50;;;3.40;;
34184;SDS011;20454;48.100;11.776;2022-12-24T15:58:31;6.70;;;4.65;;
34184;SDS011;20454;48.100;11.776;2022-12-24T16:01:03;7.63;;;5.88;;
34184;SDS011;20454;48.100;11.776;2022-12-24T16:03:33;5.88;;;4.80;;
34184;SDS011;20454;48.100;11.776;2022-12-24T16:06:05;15.20;;;6.15;;
34184;SDS011;20454;48.100;11.776;2022-12-24T16:08:34;10.27;;;9.23;;
34184;SDS011;20454;48.100;11.776;2022-12-24T16:14:08;8.98;;;6.03;;
34184;SDS011;20454;48.100;11.776;2022-12-24T16:16:47;4.57;;;3.85;;
34184;SDS011;20454;48.100;11.776;2022-12-24T16:19:20;5.85;;;3.67;;
34184;SDS011;20454;48.100;11.776;2022-12-24T16:21:55;4.95;;;3.45;;
34184;SDS011;20454;48.100;11.776;2022-12-24T16:24:44;5.65;;;3.75;;
34184;SDS011;20454;48.100;11.776;2022-12-24T16:27:11;5.28;;;3.88;;
34184;SDS011;20454;48.100;11.776;2022-12-24T16:29:37;2.40;;;2.20;;
34184;SDS011;20454;48.100;11.776;2022-12-24T16:32:03;6.55;;;3.83;;
34184;SDS011;20454;48.100;11.776;2022-12-24T16:34:30;3.58;;;3.28;;
34184;SDS011;20454;48.100;11.776;2022-12-24T16:36:57;7.15;;;3.40;;
34184;SDS011;20454;48.100;11.776;2022-12-24T16:39:31;7.95;;;4.53;;
34184;SDS011;20454;48.100;11.776;2022-12-24T16:42:00;9.32;;;8.40;;
34184;SDS011;20454;48.100;11.776;2022-12-24T16:44:46;12.27;;;7.90;;
34184;SDS011;20454;48.100;11.776;2022-12-24T16:47:26;12.00;;;6.60;;
34184;SDS011;20454;48.100;11.776;2022-12-24T16:49:58;13.13;;;8.50;;
34184;SDS011;20454;48.100;11.776;2022-12-24T16:52:25;13.90;;;7.05;;
34184;SDS011;20454;48.100;11.776;2022-12-24T16:54:53;6.85;;;4.03;;
34184;SDS011;20454;48.100;11.776;2022-12-24T16:57:20;4.45;;;3.80;;
34184;SDS011;20454;48.100;11.776;2022-12-24T16:59:48;2.33;;;2.13;;
34184;SDS011;20454;48.100;11.776;2022-12-24T17:02:17;3.33;;;2.45;;
34184;SDS011;20454;48.100;11.776;2022-12-24T17:04:45;7.22;;;5.07;;
34184;SDS011;20454;48.100;11.776;2022-12-24T17:07:14;5.45;;;4.35;;
34184;SDS011;20454;48.100;11.776;2022-12-24T17:09:42;4.13;;;3.42;;
34184;SDS011;20454;48.100;11.776;2022-12-24T17:12:08;3.67;;;3.35;;
34184;SDS011;20454;48.100;11.776;2022-12-24T17:14:36;2.65;;;2.45;;
34184;SDS011;20454;48.100;11.776;2022-12-24T17:17:03;3.03;;;1.90;;
34184;SDS011;20454;48.100;11.776;2022-12-24T17:19:29;2.67;;;2.22;;
34184;SDS011;20454;48.100;11.776;2022-12-24T17:21:55;2.67;;;2.38;;
34184;SDS011;20454;48.100;11.776;2022-12-24T17:24:20;3.88;;;3.58;;
34184;SDS011;20454;48.100;11.776;2022-12-24T17:26:46;3.20;;;3.00;;
34184;SDS011;20454;48.100;11.776;2022-12-24T17:29:12;3.33;;;3.08;;
34184;SDS011;20454;48.100;11.776;2022-12-24T17:31:37;3.22;;;3.00;;
34184;SDS011;20454;48.100;11.776;2022-12-24T17:34:06;2.47;;;2.10;;
34184;SDS011;20454;48.100;11.776;2022-12-24T17:36:32;2.20;;;2.00;;
34184;SDS011;20454;48.100;11.776;2022-12-24T17:38:58;2.05;;;1.83;;
34184;SDS011;20454;48.100;11.776;2022-12-24T17:41:24;2.30;;;2.00;;
34184;SDS011;20454;48.100;11.776;2022-12-24T17:43:50;5.28;;;4.82;;
34184;SDS011;20454;48.100;11.776;2022-12-24T17:46:17;5.90;;;4.10;;
34184;SDS011;20454;48.100;11.776;2022-12-24T17:48:46;3.67;;;3.38;;
34184;SDS011;20454;48.100;11.776;2022-12-24T17:51:16;3.17;;;2.78;;
34184;SDS011;20454;48.100;11.776;2022-12-24T17:53:46;3.33;;;3.05;;
34184;SDS011;20454;48.100;11.776;2022-12-24T17:56:12;1.80;;;1.70;;
34184;SDS011;20454;48.100;11.776;2022-12-24T17:58:40;2.03;;;1.77;;
34184;SDS011;20454;48.100;11.776;2022-12-24T18:01:17;2.70;;;1.30;;
34184;SDS011;20454;48.100;11.776;2022-12-24T18:03:45;2.13;;;1.10;;
34184;SDS011;20454;48.100;11.776;2022-12-24T18:06:13;1.45;;;1.25;;
34184;SDS011;20454;48.100;11.776;2022-12-24T18:08:39;2.13;;;2.03;;
34184;SDS011;20454;48.100;11.776;2022-12-24T18:11:10;4.03;;;2.22;;
34184;SDS011;20454;48.100;11.776;2022-12-24T18:13:48;2.17;;;1.98;;
34184;SDS011;20454;48.100;11.776;2022-12-24T18:16:19;2.70;;;2.50;;
34184;SDS011;20454;48.100;11.776;2022-12-24T18:18:48;3.40;;;3.10;;
34184;SDS011;20454;48.100;11.776;2022-12-24T18:21:16;5.20;;;3.22;;
34184;SDS011;20454;48.100;11.776;2022-12-24T18:23:45;3.70;;;3.40;;
34184;SDS011;20454;48.100;11.776;2022-12-24T18:26:13;9.13;;;6.72;;
34184;SDS011;20454;48.100;11.776;2022-12-24T18:28:40;5.28;;;4.72;;
34184;SDS011;20454;48.100;11.776;2022-12-24T18:31:08;9.90;;;6.10;;
34184;SDS011;20454;48.100;11.776;2022-12-24T18:33:39;7.10;;;6.35;;
34184;SDS011;20454;48.100;11.776;2022-12-24T18:36:06;8.18;;;7.10;;
34184;SDS011;20454;48.100;11.776;2022-12-24T18:38:32;10.70;;;8.20;;
34184;SDS011;20454;48.100;11.776;2022-12-24T18:41:02;10.25;;;6.90;;
34184;SDS011;20454;48.100;11.776;2022-12-24T18:43:55;10.27;;;7.50;;
34184;SDS011;20454;48.100;11.776;2022-12-24T18:46:23;9.73;;;7.55;;
34184;SDS011;20454;48.100;11.776;2022-12-24T18:48:53;11.57;;;9.15;;
34184;SDS011;20454;48.100;11.776;2022-12-24T18:51:20;8.85;;;7.88;;
34184;SDS011;20454;48.100;11.776;2022-12-24T18:53:47;7.07;;;6.47;;
34184;SDS011;20454;48.100;11.776;2022-12-24T18:56:21;5.32;;;4.85;;
34184;SDS011;20454;48.100;11.776;2022-12-24T18:58:51;4.35;;;3.60;;
34184;SDS011;20454;48.100;11.776;2022-12-24T19:01:25;3.67;;;3.35;;
34184;SDS011;20454;48.100;11.776;2022-12-24T19:03:58;4.20;;;3.58;;
34184;SDS011;20454;48.100;11.776;2022-12-24T19:06:25;3.80;;;3.25;;
34184;SDS011;20454;48.100;11.776;2022-12-24T19:08:52;2.92;;;2.63;;
34184;SDS011;20454;48.100;11.776;2022-12-24T19:11:18;3.10;;;2.70;;
34184;SDS011;20454;48.100;11.776;2022-12-24T19:13:45;3.58;;;2.00;;
34184;SDS011;20454;48.100;11.776;2022-12-24T19:16:12;3.28;;;1.95;;
34184;SDS011;20454;48.100;11.776;2022-12-24T19:18:38;2.47;;;2.10;;
34184;SDS011;20454;48.100;11.776;2022-12-24T19:21:04;3.13;;;2.22;;
34184;SDS011;20454;48.100;11.776;2022-12-24T19:23:32;3.17;;;1.65;;
34184;SDS011;20454;48.100;11.776;2022-12-24T19:25:58;7.05;;;4.75;;
34184;SDS011;20454;48.100;11.776;2022-12-24T19:28:24;9.38;;;7.45;;
34184;SDS011;20454;48.100;11.776;2022-12-24T19:30:49;8.43;;;6.28;;
34184;SDS011;20454;48.100;11.776;2022-12-24T19:33:15;13.82;;;8.80;;
34184;SDS011;20454;48.100;11.776;2022-12-24T19:35:41;13.82;;;9.57;;
34184;SDS011;20454;48.100;11.776;2022-12-24T19:38:07;10.82;;;9.32;;
34184;SDS011;20454;48.100;11.776;2022-12-24T19:40:36;10.85;;;8.70;;
34184;SDS011;20454;48.100;11.776;2022-12-24T19:43:02;11.35;;;7.85;;
34184;SDS011;20454;48.100;11.776;2022-12-24T19:45:28;9.80;;;8.13;;
34184;SDS011;20454;48.100;11.776;2022-12-24T19:47:54;7.32;;;5.68;;
34184;SDS011;20454;48.100;11.776;2022-12-24T19:50:20;8.45;;;6.40;;
34184;SDS011;20454;48.100;11.776;2022-12-24T19:52:46;6.85;;;5.40;;
34184;SDS011;20454;48.100;11.776;2022-12-24T19:55:12;5.63;;;5.13;;
34184;SDS011;20454;48.100;11.776;2022-12-24T19:57:39;7.30;;;4.82;;
34184;SDS011;20454;48.100;11.776;2022-12-24T20:00:06;4.18;;;3.78;;
34184;SDS011;20454;48.100;11.776;2022-12-24T20:02:34;6.35;;;4.47;;
34184;SDS011;20454;48.100;11.776;2022-12-24T20:05:00;5.88;;;5.20;;
34184;SDS011;20454;48.100;11.776;2022-12-24T20:07:27;6.00;;;5.03;;
34184;SDS011;20454;48.100;11.776;2022-12-24T20:09:52;5.97;;;5.22;;
34184;SDS011;20454;48.100;11.776;2022-12-24T20:12:18;6.32;;;5.15;;
34184;SDS011;20454;48.100;11.776;2022-12-24T20:14:44;6.78;;;5.40;;
34184;SDS011;20454;48.100;11.776;2022-12-24T20:17:10;6.10;;;5.35;;
34184;SDS011;20454;48.100;11.776;2022-12-24T20:19:36;4.70;;;4.05;;
34184;SDS011;20454;48.100;11.776;2022-12-24T20:22:02;3.20;;;2.90;;
34184;SDS011;20454;48.100;11.776;2022-12-24T20:24:27;3.08;;;2.35;;
34184;SDS011;20454;48.100;11.776;2022-12-24T20:26:53;2.13;;;1.85;;
34184;SDS011;20454;48.100;11.776;2022-12-24T20:29:19;2.38;;;2.15;;
34184;SDS011;20454;48.100;11.776;2022-12-24T20:31:44;3.20;;;2.72;;
34184;SDS011;20454;48.100;11.776;2022-12-24T20:34:10;3.35;;;2.70;;
34184;SDS011;20454;48.100;11.776;2022-12-24T20:36:36;5.40;;;3.15;;
34184;SDS011;20454;48.100;11.776;2022-12-24T20:39:02;3.45;;;3.13;;
34184;SDS011;20454;48.100;11.776;2022-12-24T20:41:30;4.03;;;3.60;;
34184;SDS011;20454;48.100;11.776;2022-12-24T20:43:57;7.93;;;4.65;;
34184;SDS011;20454;48.100;11.776;2022-12-24T20:46:25;6.13;;;3.00;;
34184;SDS011;20454;48.100;11.776;2022-12-24T20:48:53;3.33;;;3.00;;
34184;SDS011;20454;48.100;11.776;2022-12-24T20:51:21;3.90;;;3.47;;
34184;SDS011;20454;48.100;11.776;2022-12-24T20:53:49;5.78;;;3.53;;
34184;SDS011;20454;48.100;11.776;2022-12-24T20:56:19;3.92;;;3.53;;
34184;SDS011;20454;48.100;11.776;2022-12-24T20:58:46;4.20;;;3.80;;
34184;SDS011;20454;48.100;11.776;2022-12-24T21:01:17;3.47;;;3.13;;
34184;SDS011;20454;48.100;11.776;2022-12-24T21:03:46;7.60;;;4.50;;
34184;SDS011;20454;48.100;11.776;2022-12-24T21:06:12;7.82;;;5.63;;
34184;SDS011;20454;48.100;11.776;2022-12-24T21:08:39;7.55;;;4.53;;
34184;SDS011;20454;48.100;11.776;2022-12-24T21:11:05;6.60;;;4.78;;
34184;SDS011;20454;48.100;11.776;2022-12-24T21:13:49;8.13;;;5.18;;
34184;SDS011;20454;48.100;11.776;2022-12-24T21:16:15;7.03;;;4.82;;
34184;SDS011;20454;48.100;11.776;2022-12-24T21:18:41;4.43;;;3.70;;
34184;SDS011;20454;48.100;11.776;2022-12-24T21:21:06;6.43;;;4.20;;
34184;SDS011;20454;48.100;11.776;2022-12-24T21:23:32;7.25;;;5.95;;
34184;SDS011;20454;48.100;11.776;2022-12-24T21:25:58;8.10;;;4.55;;
34184;SDS011;20454;48.100;11.776;2022-12-24T21:28:26;7.20;;;4.35;;
34184;SDS011;20454;48.100;11.776;2022-12-24T21:30:52;9.23;;;4.47;;
34184;SDS011;20454;48.100;11.776;2022-12-24T21:33:19;5.90;;;4.55;;
34184;SDS011;20454;48.100;11.776;2022-12-24T21:35:45;4.65;;;4.25;;
34184;SDS011;20454;48.100;11.776;2022-12-24T21:38:11;4.50;;;3.85;;
34184;SDS011;20454;48.100;11.776;2022-12-24T21:40:37;5.63;;;4.07;;
34184;SDS011;20454;48.100;11.776;2022-12-24T21:43:03;5.82;;;3.78;;
34184;SDS011;20454;48.100;11.776;2022-12-24T21:45:29;6.43;;;4.28;;
34184;SDS011;20454;48.100;11.776;2022-12-24T21:47:54;6.28;;;3.88;;
34184;SDS011;20454;48.100;11.776;2022-12-24T21:50:20;5.70;;;3.45;;
34184;SDS011;20454;48.100;11.776;2022-12-24T21:53:04;3.92;;;3.28;;
34184;SDS011;20454;48.100;11.776;2022-12-24T21:55:48;4.63;;;3.33;;
34184;SDS011;20454;48.100;11.776;2022-12-24T21:58:15;7.93;;;4.53;;
34184;SDS011;20454;48.100;11.776;2022-12-24T22:00:41;3.83;;;3.50;;
34184;SDS011;20454;48.100;11.776;2022-12-24T22:03:06;3.28;;;2.75;;
34184;SDS011;20454;48.100;11.776;2022-12-24T22:05:32;6.18;;;4.05;;
34184;SDS011;20454;48.100;11.776;2022-12-24T22:07:59;5.40;;;2.85;;
34184;SDS011;20454;48.100;11.776;2022-12-24T22:10:43;3.47;;;3.17;;
34184;SDS011;20454;48.100;11.776;2022-12-24T22:13:28;3.47;;;2.97;;
34184;SDS011;20454;48.100;11.776;2022-12-24T22:15:55;4.95;;;3.33;;
34184;SDS011;20454;48.100;11.776;2022-12-24T22:18:23;5.43;;;3.63;;
34184;SDS011;20454;48.100;11.776;2022-12-24T22:20:50;5.03;;;3.28;;
34184;SDS011;20454;48.100;11.776;2022-12-24T22:23:16;3.92;;;3.40;;
34184;SDS011;20454;48.100;11.776;2022-12-24T22:25:43;9.95;;;5.30;;
34184;SDS011;20454;48.100;11.776;2022-12-24T22:28:09;13.13;;;7.22;;
34184;SDS011;20454;48.100;11.776;2022-12-24T22:30:36;6.60;;;5.05;;
34184;SDS011;20454;48.100;11.776;2022-12-24T22:33:04;7.50;;;5.20;;
34184;SDS011;20454;48.100;11.776;2022-12-24T22:35:31;6.93;;;5.60;;
34184;SDS011;20454;48.100;11.776;2022-12-24T22:38:00;8.32;;;5.68;;
34184;SDS011;20454;48.100;11.776;2022-12-24T22:40:26;10.85;;;5.93;;
34184;SDS011;20454;48.100;11.776;2022-12-24T22:42:52;6.22;;;4.82;;
34184;SDS011;20454;48.100;11.776;2022-12-24T22:45:18;8.00;;;5.72;;
34184;SDS011;20454;48.100;11.776;2022-12-24T22:47:44;6.07;;;5.05;;
34184;SDS011;20454;48.100;11.776;2022-12-24T22:50:09;9.93;;;5.82;;
34184;SDS011;20454;48.100;11.776;2022-12-24T22:52:36;9.70;;;5.38;;
34184;SDS011;20454;48.100;11.776;2022-12-24T22:55:02;6.43;;;5.82;;
34184;SDS011;20454;48.100;11.776;2022-12-24T22:57:29;6.43;;;5.75;;
34184;SDS011;20454;48.100;11.776;2022-12-24T22:59:54;6.00;;;5.32;;
34184;SDS011;20454;48.100;11.776;2022-12-24T23:02:20;6.10;;;5.38;;
34184;SDS011;20454;48.100;11.776;2022-12-24T23:04:47;6.03;;;5.43;;
34184;SDS011;20454;48.100;11.776;2022-12-24T23:07:12;6.05;;;5.47;;
34184;SDS011;20454;48.100;11.776;2022-12-24T23:09:38;5.88;;;5.25;;
34184;SDS011;20454;48.100;11.776;2022-12-24T23:12:04;6.05;;;5.25;;
34184;SDS011;20454;48.100;11.776;2022-12-24T23:14:31;5.57;;;4.47;;
34184;SDS011;20454;48.100;11.776;2022-12-24T23:17:16;6.57;;;4.97;;
34184;SDS011;20454;48.100;11.776;2022-12-24T23:19:42;5.93;;;4.43;;
34184;SDS011;20454;48.100;11.776;2022-12-24T23:22:08;4.88;;;4.40;;
34184;SDS011;20454;48.100;11.776;2022-12-24T23:24:35;4.60;;;4.20;;
34184;SDS011;20454;48.100;11.776;2022-12-24T23:27:02;5.70;;;4.35;;
34184;SDS011;20454;48.100;11.776;2022-12-24T23:29:29;7.38;;;4.18;;
34184;SDS011;20454;48.100;11.776;2022-12-24T23:31:56;3.67;;;2.83;;
34184;SDS011;20454;48.100;11.776;2022-12-24T23:34:22;3.97;;;3.30;;
34184;SDS011;20454;48.100;11.776;2022-12-24T23:36:48;4.50;;;2.80;;
34184;SDS011;20454;48.100;11.776;2022-12-24T23:39:13;4.32;;;3.50;;
34184;SDS011;20454;48.100;11.776;2022-12-24T23:41:39;3.10;;;2.75;;
34184;SDS011;20454;48.100;11.776;2022-12-24T23:44:05;3.22;;;2.88;;
34184;SDS011;20454;48.100;11.776;2022-12-24T23:46:31;5.93;;;4.10;;
34184;SDS011;20454;48.100;11.776;2022-12-24T23:48:57;3.25;;;2.95;;
34184;SDS011;20454;48.100;11.776;2022-12-24T23:51:24;4.10;;;3.70;;
34184;SDS011;20454;48.100;11.776;2022-12-24T23:53:52;4.05;;;3.63;;
34184;SDS011;20454;48.100;11.776;2022-12-24T23:56:20;10.50;;;5.00;;
34184;SDS011;20454;48.100;11.776;2022-12-24T23:58:48;5.70;;;5.05;;
